This is the latest recevied weather packets stored in our database for station/object SQ9RHX-13. If no packets are shown the sender has not sent any weather packets the latest 10 day(s).
| Time | Temp. | Humidity | Pressure | Rain* | Wind** | Luminosity | Snow |
|---|---|---|---|---|---|---|---|
| 1777544703 | 13.89° C | 34% | 1034.9 hPa | 0 mm | - | 456 W/m² | - |
| 1777544409 | 13.89° C | 34% | 1035.1 hPa | 0 mm | - | 277 W/m² | - |
| 1777544103 | 14.44° C | 33% | 1035.1 hPa | 0 mm | - | 386 W/m² | - |
| 1777543803 | 13.89° C | 33% | 1035.3 hPa | 0 mm | - | 607 W/m² | - |
| 1777543504 | 14.44° C | 32% | 1035 hPa | 0 mm | - | 562 W/m² | - |
| 1777543204 | 14.44° C | 33% | 1035.1 hPa | 0 mm | - | 682 W/m² | - |
| 1777542903 | 13.33° C | 32% | 1035.2 hPa | 0 mm | - | 706 W/m² | - |
| 1777542603 | 13.89° C | 32% | 1035.4 hPa | 0 mm | - | 315 W/m² | - |
| 1777542303 | 12.78° C | 33% | 1035.4 hPa | 0 mm | - | 729 W/m² | - |
| 1777542003 | 12.22° C | 35% | 1035.5 hPa | 0 mm | - | 207 W/m² | - |
| 1777541703 | 12.78° C | 34% | 1035.6 hPa | 0 mm | - | 185 W/m² | - |
| 1777541404 | 13.89° C | 32% | 1035.5 hPa | 0 mm | - | 239 W/m² | - |
| 1777541103 | 14.44° C | 31% | 1035.7 hPa | 0 mm | - | 775 W/m² | - |
| 1777540803 | 12.78° C | 33% | 1035.7 hPa | 0 mm | - | 706 W/m² | - |
| 1777540504 | 13.89° C | 32% | 1035.7 hPa | 0 mm | - | 652 W/m² | - |
| 1777540203 | 13.33° C | 32% | 1035.8 hPa | 0 mm | - | 646 W/m² | - |
| 1777539903 | 13.33° C | 31% | 1035.8 hPa | 0 mm | - | 612 W/m² | - |
| 1777539604 | 13.33° C | 33% | 1035.9 hPa | 0 mm | - | 594 W/m² | - |
| 1777539302 | 12.78° C | 34% | 1035.8 hPa | 0 mm | - | 578 W/m² | - |
| 1777539002 | 13.33° C | 33% | 1035.9 hPa | 0 mm | - | 488 W/m² | - |
| 1777538703 | 12.78° C | 37% | 1035.8 hPa | 0 mm | - | 549 W/m² | - |
| 1777538405 | 12.78° C | 36% | 1035.8 hPa | 0 mm | - | 545 W/m² | - |
| 1777538103 | 12.78° C | 34% | 1036 hPa | 0 mm | - | 538 W/m² | - |
| 1777537802 | 12.78° C | 35% | 1035.8 hPa | 0 mm | - | 533 W/m² | - |
| 1777537502 | 12.78° C | 35% | 1035.9 hPa | 0 mm | - | 514 W/m² | - |
* Rain latest hour (hover to see other rain measurements)
** Current wind speed in m/s (hover to see current wind gust speed)